Time;durP1;ratioP1;P1;durP2;ratioP2;P2;SDS_P1;SDS_P2;PMS_P1;PMS_P2;Temp;Humidity;BMP_temperature;BMP_pressure;BME280_temperature;BME280_humidity;BME280_pressure;Samples;Min_cycle;Max_cycle;Signal;HPM_P1;HPM_P2
2024/01/25 00:00:50;;;;;;;16.13;4.20;;;;;;;9.85;100.00;99262.78;5037179;28;20300;-72
2024/01/25 00:03:16;;;;;;;18.10;3.90;;;;;;;9.91;100.00;99262.06;5037121;28;20229;-72
2024/01/25 00:05:44;;;;;;;16.23;4.40;;;;;;;9.88;100.00;99252.63;5036868;28;20696;-72
2024/01/25 00:08:10;;;;;;;21.43;4.87;;;;;;;9.78;100.00;99246.75;5037624;28;20205;-72
2024/01/25 00:10:37;;;;;;;18.37;4.23;;;;;;;9.84;100.00;99239.88;5036996;28;20284;-72
2024/01/25 00:13:03;;;;;;;14.43;4.30;;;;;;;9.96;100.00;99241.06;5036888;28;20221;-72
2024/01/25 00:15:29;;;;;;;15.83;4.07;;;;;;;9.95;100.00;99236.75;5036901;28;20202;-72
2024/01/25 00:17:56;;;;;;;15.93;4.30;;;;;;;9.96;100.00;99233.09;5036926;28;20206;-72
2024/01/25 00:20:23;;;;;;;16.27;3.77;;;;;;;9.88;100.00;99228.72;5036908;28;20655;-72
2024/01/25 00:22:49;;;;;;;16.20;4.30;;;;;;;9.92;100.00;99239.78;5036813;28;20236;-72
2024/01/25 00:25:16;;;;;;;16.93;3.87;;;;;;;9.89;100.00;99229.53;5036267;28;20214;-72
2024/01/25 00:27:44;;;;;;;19.47;4.30;;;;;;;9.93;100.00;99233.47;5036409;28;20673;-72
2024/01/25 00:30:11;;;;;;;18.90;3.57;;;;;;;9.89;100.00;99230.34;5036539;28;20240;-72
2024/01/25 00:32:37;;;;;;;18.93;4.60;;;;;;;9.86;100.00;99229.91;5036646;28;20222;-72
2024/01/25 00:35:04;;;;;;;16.90;3.53;;;;;;;9.96;100.00;99233.91;5036607;28;20256;-72
2024/01/25 00:37:31;;;;;;;14.37;3.43;;;;;;;9.95;100.00;99234.09;5036580;28;20210;-72
2024/01/25 00:39:58;;;;;;;18.00;3.53;;;;;;;9.97;100.00;99221.44;5036243;28;20683;-72
2024/01/25 00:42:24;;;;;;;15.67;3.97;;;;;;;9.93;100.00;99221.00;5036407;28;20229;-72
2024/01/25 00:44:51;;;;;;;18.27;4.00;;;;;;;10.07;100.00;99238.78;5035999;28;20579;-72
2024/01/25 00:47:18;;;;;;;17.53;3.77;;;;;;;9.98;100.00;99228.41;5036167;28;20202;-72
2024/01/25 00:49:44;;;;;;;18.20;4.00;;;;;;;10.03;100.00;99231.31;5036272;28;20221;-72
2024/01/25 00:52:11;;;;;;;19.27;4.47;;;;;;;10.00;100.00;99227.22;5036238;28;20230;-72
2024/01/25 00:54:38;;;;;;;17.97;4.20;;;;;;;9.95;100.00;99237.56;5036005;28;20210;-72
2024/01/25 00:57:05;;;;;;;18.23;3.97;;;;;;;9.86;100.00;99228.06;5035439;28;20210;-72
2024/01/25 00:59:31;;;;;;;17.33;5.00;;;;;;;9.96;100.00;99233.09;5035898;28;20202;-72
2024/01/25 01:01:59;;;;;;;19.13;4.23;;;;;;;9.96;100.00;99235.75;5036119;28;20202;-72
2024/01/25 01:04:27;;;;;;;18.73;4.50;;;;;;;9.93;100.00;99241.44;5035909;28;20206;-72
2024/01/25 01:06:53;;;;;;;20.90;4.43;;;;;;;9.93;100.00;99230.81;5036113;28;20216;-72
2024/01/25 01:09:20;;;;;;;18.27;4.13;;;;;;;9.90;100.00;99231.16;5035917;28;20248;-72
2024/01/25 01:11:46;;;;;;;22.73;4.43;;;;;;;9.93;100.00;99221.00;5035894;28;20213;-72
2024/01/25 01:14:12;;;;;;;16.30;4.13;;;;;;;9.96;100.00;99225.94;5035645;28;20226;-72
2024/01/25 01:16:39;;;;;;;16.93;3.70;;;;;;;9.95;100.00;99229.59;5035755;28;20364;-72
2024/01/25 01:19:07;;;;;;;16.67;3.83;;;;;;;10.00;100.00;99231.72;5035684;28;20201;-72
2024/01/25 01:21:34;;;;;;;17.07;4.30;;;;;;;9.92;100.00;99222.00;5035329;28;20301;-72
2024/01/25 01:24:01;;;;;;;24.13;4.93;;;;;;;9.89;100.00;99230.34;5035527;28;20222;-72
2024/01/25 01:26:27;;;;;;;18.57;4.37;;;;;;;9.97;100.00;99221.44;5035234;28;20210;-72
2024/01/25 01:28:54;;;;;;;17.83;3.50;;;;;;;9.95;100.00;99215.47;5035755;28;20252;-72
2024/01/25 01:31:20;;;;;;;16.97;3.90;;;;;;;9.98;100.00;99229.25;5035493;28;20206;-72
2024/01/25 01:33:47;;;;;;;11.83;3.83;;;;;;;10.05;100.00;99232.00;5035045;28;20222;-72
2024/01/25 01:36:14;;;;;;;13.30;3.90;;;;;;;9.99;100.00;99222.91;5035408;28;20206;-72
2024/01/25 01:38:41;;;;;;;13.97;3.90;;;;;;;10.01;100.00;99217.41;5035343;28;20209;-72
2024/01/25 01:41:07;;;;;;;13.87;3.60;;;;;;;10.09;100.00;99220.81;5035071;28;20205;-72
2024/01/25 01:43:34;;;;;;;15.77;3.80;;;;;;;10.06;100.00;99225.69;5034898;28;20575;-72
2024/01/25 01:46:07;;;;;;;18.30;4.17;;;;;;;10.08;100.00;99226.31;5035168;28;20206;-72
2024/01/25 01:48:34;;;;;;;15.53;4.00;;;;;;;10.10;100.00;99218.97;5034922;28;20653;-72
2024/01/25 01:51:00;;;;;;;18.37;3.80;;;;;;;10.01;100.00;99220.06;5034998;28;20232;-72
2024/01/25 01:53:27;;;;;;;15.10;3.93;;;;;;;10.02;100.00;99225.22;5034696;28;20755;-72
2024/01/25 01:55:53;;;;;;;18.70;3.73;;;;;;;9.98;100.00;99215.13;5035028;28;20213;-72
2024/01/25 01:58:21;;;;;;;14.50;3.17;;;;;;;9.94;100.00;99225.31;5034907;28;20217;-72
2024/01/25 02:00:51;;;;;;;14.60;3.70;;;;;;;10.04;100.00;99227.66;5034972;28;20198;-72
2024/01/25 02:03:17;;;;;;;17.73;4.03;;;;;;;9.99;100.00;99227.38;5034884;28;20591;-72
2024/01/25 02:05:43;;;;;;;22.30;4.47;;;;;;;9.96;100.00;99222.47;5034787;28;20570;-72
2024/01/25 02:08:10;;;;;;;16.20;4.47;;;;;;;9.86;100.00;99213.97;5034798;28;20205;-72
2024/01/25 02:10:36;;;;;;;18.23;3.90;;;;;;;9.94;100.00;99225.31;5034762;28;20232;-72
2024/01/25 02:13:03;;;;;;;16.40;3.90;;;;;;;9.90;100.00;99215.22;5034681;28;20654;-72
2024/01/25 02:15:29;;;;;;;13.80;3.50;;;;;;;9.89;100.00;99213.59;5034734;28;20210;-72
2024/01/25 02:17:56;;;;;;;16.80;4.20;;;;;;;9.85;100.00;99217.63;5034715;28;20208;-72
2024/01/25 02:20:23;;;;;;;14.73;3.67;;;;;;;9.84;100.00;99213.31;5034629;28;20202;-72
2024/01/25 02:22:49;;;;;;;15.70;3.67;;;;;;;9.78;100.00;99211.41;5034678;28;20236;-72
2024/01/25 02:25:15;;;;;;;18.87;3.60;;;;;;;9.79;100.00;99203.28;5034316;28;20218;-72
2024/01/25 02:27:42;;;;;;;17.90;4.13;;;;;;;9.82;100.00;99204.72;5035353;28;20207;-72
2024/01/25 02:30:09;;;;;;;17.20;4.23;;;;;;;9.79;100.00;99213.91;5035157;28;20225;-72
2024/01/25 02:32:35;;;;;;;15.17;3.53;;;;;;;9.81;100.00;99214.53;5034388;28;20228;-72
2024/01/25 02:35:02;;;;;;;18.53;3.93;;;;;;;9.82;100.00;99216.16;5034049;28;20217;-72
2024/01/25 02:37:28;;;;;;;12.93;3.30;;;;;;;9.81;100.00;99213.69;5034356;28;20212;-72
2024/01/25 02:39:54;;;;;;;15.20;3.33;;;;;;;9.83;100.00;99217.00;5034382;28;20205;-72
2024/01/25 02:42:21;;;;;;;19.17;3.63;;;;;;;9.79;100.00;99218.38;5034205;28;20222;-72
2024/01/25 02:44:49;;;;;;;15.90;3.47;;;;;;;9.74;100.00;99226.88;5034223;28;20209;-72
2024/01/25 02:47:15;;;;;;;13.43;3.17;;;;;;;9.76;100.00;99208.13;5034106;28;20289;-72
2024/01/25 02:49:41;;;;;;;16.53;4.10;;;;;;;9.70;100.00;99222.13;5033663;28;20617;-72
2024/01/25 02:52:08;;;;;;;12.33;3.10;;;;;;;9.74;100.00;99226.06;5033684;28;20732;-72
2024/01/25 02:54:37;;;;;;;12.23;3.60;;;;;;;9.72;100.00;99228.06;5033685;28;20686;-72
2024/01/25 02:57:05;;;;;;;10.67;3.00;;;;;;;9.72;100.00;99236.03;5034024;28;20210;-72
2024/01/25 02:59:31;;;;;;;13.07;3.20;;;;;;;9.66;100.00;99234.13;5034025;28;20202;-72
2024/01/25 03:01:58;;;;;;;19.17;4.10;;;;;;;9.59;100.00;99227.94;5033831;28;20205;-72
2024/01/25 03:04:24;;;;;;;15.70;3.70;;;;;;;9.62;100.00;99224.88;5033943;28;20205;-72
2024/01/25 03:06:51;;;;;;;20.80;4.00;;;;;;;9.68;100.00;99230.28;5033508;28;20664;-72
2024/01/25 03:09:17;;;;;;;17.73;3.50;;;;;;;9.65;100.00;99229.84;5033742;28;20551;-72
2024/01/25 03:11:43;;;;;;;16.00;3.40;;;;;;;9.57;100.00;99235.25;5033804;28;20213;-72
2024/01/25 03:14:10;;;;;;;18.37;3.60;;;;;;;9.61;100.00;99241.84;5033362;28;20739;-72
2024/01/25 03:16:36;;;;;;;14.90;3.83;;;;;;;9.62;100.00;99239.00;5033417;28;20690;-72
2024/01/25 03:19:02;;;;;;;15.87;3.77;;;;;;;9.63;100.00;99242.47;5032995;28;20669;-72
2024/01/25 03:21:29;;;;;;;13.53;3.57;;;;;;;9.64;100.00;99239.63;5033381;28;20726;-72
2024/01/25 03:23:55;;;;;;;18.97;4.20;;;;;;;9.56;100.00;99250.34;5033481;28;20230;-72
2024/01/25 03:26:22;;;;;;;16.57;3.97;;;;;;;9.56;100.00;99246.88;5033213;28;20224;-72
2024/01/25 03:28:48;;;;;;;15.40;3.40;;;;;;;9.55;100.00;99242.56;5033499;28;20206;-72
2024/01/25 03:31:14;;;;;;;15.50;3.50;;;;;;;9.53;100.00;99242.75;5033385;28;20226;-72
2024/01/25 03:33:41;;;;;;;13.87;3.40;;;;;;;9.54;100.00;99251.53;5033360;28;20221;-72
2024/01/25 03:36:07;;;;;;;15.07;3.50;;;;;;;9.47;100.00;99255.94;5033203;28;20661;-72
2024/01/25 03:38:34;;;;;;;15.07;3.23;;;;;;;9.53;100.00;99260.50;5033317;28;20209;-72
2024/01/25 03:41:00;;;;;;;14.77;4.33;;;;;;;9.46;100.00;99265.72;5033127;28;20206;-72
2024/01/25 03:43:27;;;;;;;15.13;3.93;;;;;;;9.40;100.00;99269.09;5033234;28;20230;-72
2024/01/25 03:45:53;;;;;;;13.63;3.43;;;;;;;9.40;100.00;99263.81;5033365;28;20209;-72
2024/01/25 03:48:19;;;;;;;16.17;4.07;;;;;;;9.37;100.00;99276.63;5033022;28;20579;-72
2024/01/25 03:50:46;;;;;;;12.90;3.57;;;;;;;9.37;100.00;99276.63;5032997;28;20701;-72
2024/01/25 03:53:12;;;;;;;14.63;2.90;;;;;;;9.37;100.00;99288.03;5032890;28;20276;-72
2024/01/25 03:55:39;;;;;;;17.53;3.63;;;;;;;9.36;100.00;99293.53;5033311;28;20232;-72
2024/01/25 03:58:05;;;;;;;21.73;4.07;;;;;;;9.38;100.00;99283.56;5033277;28;20210;-72
2024/01/25 04:00:31;;;;;;;16.03;4.23;;;;;;;9.31;100.00;99291.44;5032836;28;20669;-72
2024/01/25 04:02:58;;;;;;;13.83;4.00;;;;;;;9.32;100.00;99302.88;5032504;28;20746;-72
2024/01/25 04:05:26;;;;;;;14.60;3.90;;;;;;;9.25;100.00;99307.25;5032575;28;20672;-72
2024/01/25 04:07:52;;;;;;;22.43;3.73;;;;;;;9.18;100.00;99299.19;5032949;28;20316;-72
2024/01/25 04:10:19;;;;;;;14.33;3.80;;;;;;;9.27;100.00;99302.56;5032929;28;20232;-72
2024/01/25 04:12:45;;;;;;;16.13;4.10;;;;;;;9.25;100.00;99310.75;5032868;28;20232;-72
2024/01/25 04:15:11;;;;;;;17.80;4.20;;;;;;;9.19;100.00;99308.78;5032921;28;20202;-72
2024/01/25 04:17:38;;;;;;;12.77;3.63;;;;;;;9.25;100.00;99296.63;5032922;28;20228;-72
2024/01/25 04:20:05;;;;;;;18.40;4.37;;;;;;;9.22;100.00;99294.31;5032847;28;20213;-72
2024/01/25 04:22:31;;;;;;;17.00;3.93;;;;;;;9.26;100.00;99287.66;5032898;28;20234;-72
2024/01/25 04:24:57;;;;;;;15.10;3.63;;;;;;;9.21;100.00;99295.34;5032607;28;20218;-72
2024/01/25 04:27:24;;;;;;;15.37;3.53;;;;;;;9.22;100.00;99291.69;5032817;28;20209;-72
2024/01/25 04:29:50;;;;;;;22.10;4.43;;;;;;;9.19;100.00;99287.56;5032772;28;20225;-72
2024/01/25 04:32:16;;;;;;;14.03;3.50;;;;;;;9.17;100.00;99291.41;5034520;28;20225;-72
2024/01/25 04:34:46;;;;;;;18.33;4.67;;;;;;;9.16;100.00;99287.09;5036195;28;20210;-72
2024/01/25 04:37:12;;;;;;;15.83;3.27;;;;;;;9.17;100.00;99294.88;5035966;28;20756;-72
2024/01/25 04:39:38;;;;;;;20.20;3.77;;;;;;;9.18;100.00;99287.72;5036010;28;20252;-72
2024/01/25 04:42:05;;;;;;;19.83;4.50;;;;;;;9.17;100.00;99302.00;5035846;28;20206;-72
2024/01/25 04:44:31;;;;;;;22.50;4.27;;;;;;;9.17;100.00;99294.88;5036085;28;20208;-72
2024/01/25 04:46:58;;;;;;;15.90;3.63;;;;;;;9.13;100.00;99300.72;5036033;28;20210;-72
2024/01/25 04:49:25;;;;;;;19.10;4.00;;;;;;;9.13;100.00;99304.19;5035912;28;20206;-72
2024/01/25 04:51:51;;;;;;;13.07;3.53;;;;;;;9.16;100.00;99305.66;5035538;28;20232;-72
2024/01/25 04:54:18;;;;;;;14.77;3.73;;;;;;;9.08;100.00;99303.09;5035704;28;20569;-72
2024/01/25 04:56:44;;;;;;;19.10;3.60;;;;;;;9.05;100.00;99295.50;5035862;28;20206;-72
2024/01/25 04:59:11;;;;;;;15.70;3.90;;;;;;;9.01;100.00;99297.66;5035907;28;20213;-72
2024/01/25 05:01:37;;;;;;;23.63;4.10;;;;;;;9.07;100.00;99304.09;5035758;28;20206;-72
2024/01/25 05:04:03;;;;;;;12.90;3.73;;;;;;;9.06;100.00;99305.09;5035452;28;20221;-72
2024/01/25 05:06:30;;;;;;;13.93;3.77;;;;;;;8.95;100.00;99303.69;5035656;28;20279;-72
2024/01/25 05:08:57;;;;;;;15.43;3.50;;;;;;;8.93;100.00;99315.50;5035529;28;20209;-72
2024/01/25 05:11:23;;;;;;;19.07;3.93;;;;;;;8.88;100.00;99323.16;5035603;28;20226;-72
2024/01/25 05:13:49;;;;;;;18.10;3.90;;;;;;;8.88;100.00;99318.66;5035634;28;20225;-72
2024/01/25 05:16:16;;;;;;;18.57;4.00;;;;;;;8.71;100.00;99311.84;5035495;28;20202;-72
2024/01/25 05:18:42;;;;;;;18.23;4.03;;;;;;;8.78;100.00;99312.78;5035251;28;20214;-72
2024/01/25 05:21:08;;;;;;;17.10;3.80;;;;;;;8.70;100.00;99314.66;5035325;28;20198;-72
2024/01/25 05:23:35;;;;;;;19.37;4.13;;;;;;;8.66;100.00;99321.31;5034911;28;20732;-72
2024/01/25 05:26:02;;;;;;;16.17;3.73;;;;;;;8.55;100.00;99327.03;5034954;28;20224;-72
2024/01/25 05:28:29;;;;;;;19.67;3.97;;;;;;;8.52;100.00;99327.38;5035445;28;20208;-72
2024/01/25 05:30:55;;;;;;;17.50;3.80;;;;;;;8.47;100.00;99337.69;5035409;28;20225;-72
2024/01/25 05:33:21;;;;;;;13.13;3.70;;;;;;;8.46;100.00;99339.50;5034930;28;20308;-72
2024/01/25 05:35:48;;;;;;;15.70;3.70;;;;;;;8.52;100.00;99333.53;5035262;28;20216;-72
2024/01/25 05:38:15;;;;;;;15.53;3.70;;;;;;;8.42;100.00;99347.97;5035382;28;20205;-72
2024/01/25 05:40:41;;;;;;;16.90;3.77;;;;;;;8.34;100.00;99340.06;5035252;28;20212;-72
2024/01/25 05:43:07;;;;;;;14.47;3.50;;;;;;;8.28;100.00;99348.72;5034559;28;20238;-72
2024/01/25 05:45:34;;;;;;;17.07;4.13;;;;;;;8.25;100.00;99357.84;5034954;28;20219;-72
2024/01/25 05:48:00;;;;;;;15.23;3.87;;;;;;;8.22;100.00;99355.53;5034993;28;20225;-72
2024/01/25 05:50:26;;;;;;;12.27;3.33;;;;;;;8.14;100.00;99350.22;5034774;28;20232;-72
2024/01/25 05:52:53;;;;;;;17.10;3.43;;;;;;;8.12;100.00;99351.41;5034531;28;20222;-72
2024/01/25 05:55:19;;;;;;;16.50;3.53;;;;;;;8.03;100.00;99339.19;5034711;28;20205;-72
2024/01/25 05:57:46;;;;;;;13.47;3.63;;;;;;;8.13;100.00;99353.03;5034434;28;20608;-72
2024/01/25 06:00:15;;;;;;;19.80;4.10;;;;;;;8.05;100.00;99345.97;5033855;28;20569;-72
2024/01/25 06:02:41;;;;;;;19.30;4.10;;;;;;;8.08;100.00;99355.38;5034345;28;20707;-72
2024/01/25 06:05:08;;;;;;;18.07;4.03;;;;;;;8.12;100.00;99356.69;5034386;28;20299;-72
2024/01/25 06:07:34;;;;;;;12.77;3.40;;;;;;;8.04;100.00;99356.72;5034087;28;20206;-72
2024/01/25 06:10:01;;;;;;;18.03;4.17;;;;;;;7.99;100.00;99357.25;5034169;28;20206;-72
2024/01/25 06:12:27;;;;;;;13.70;3.73;;;;;;;7.88;100.00;99362.91;5034405;28;20222;-72
2024/01/25 06:14:53;;;;;;;13.93;3.50;;;;;;;7.86;100.00;99366.72;5034293;28;20205;-72
2024/01/25 06:17:20;;;;;;;12.87;3.00;;;;;;;7.89;100.00;99369.88;5033523;28;20573;-72
2024/01/25 06:19:46;;;;;;;17.57;3.23;;;;;;;7.73;100.00;99356.66;5034038;28;20208;-72
2024/01/25 06:22:13;;;;;;;16.37;3.87;;;;;;;7.70;100.00;99364.13;5033291;28;20222;-72
2024/01/25 06:24:39;;;;;;;20.57;3.87;;;;;;;7.78;100.00;99359.63;5033937;28;20209;-72
2024/01/25 06:27:06;;;;;;;13.27;3.67;;;;;;;7.78;100.00;99348.22;5034307;28;20606;-72
2024/01/25 06:29:32;;;;;;;16.27;3.67;;;;;;;7.72;100.00;99355.00;5034187;28;20206;-72
2024/01/25 06:31:59;;;;;;;16.33;3.87;;;;;;;7.73;100.00;99350.53;5033804;28;20225;-72
2024/01/25 06:34:25;;;;;;;18.07;4.00;;;;;;;7.67;100.00;99356.50;5033628;28;20723;-72
2024/01/25 06:36:52;;;;;;;18.40;4.60;;;;;;;7.58;100.00;99352.22;5033358;28;20677;-72
2024/01/25 06:39:18;;;;;;;20.93;4.80;;;;;;;7.53;100.00;99343.97;5033595;28;20218;-73
2024/01/25 06:41:44;;;;;;;19.63;3.93;;;;;;;7.51;100.00;99357.34;5033739;28;20209;-72
2024/01/25 06:44:11;;;;;;;18.33;4.00;;;;;;;7.59;100.00;99351.22;5033263;28;20226;-72
2024/01/25 06:46:37;;;;;;;21.30;4.37;;;;;;;7.54;100.00;99350.91;5033016;28;20749;-72
2024/01/25 06:49:03;;;;;;;13.27;3.40;;;;;;;7.59;100.00;99354.72;5033730;28;20576;-72
2024/01/25 06:51:30;;;;;;;25.50;5.23;;;;;;;7.59;100.00;99361.81;5033215;28;20717;-72
2024/01/25 06:53:56;;;;;;;16.50;3.47;;;;;;;7.49;100.00;99369.94;5032712;28;20276;-72
2024/01/25 06:56:23;;;;;;;19.70;4.13;;;;;;;7.43;100.00;99383.00;5033260;28;20296;-72
2024/01/25 06:58:49;;;;;;;22.53;4.60;;;;;;;7.44;100.00;99380.22;5033411;28;20206;-72
2024/01/25 07:01:21;;;;;;;25.57;4.63;;;;;;;7.44;100.00;99393.44;5033074;28;20203;-72
2024/01/25 07:03:50;;;;;;;23.20;4.80;;;;;;;7.42;100.00;99390.13;5032927;28;20728;-72
2024/01/25 07:06:16;;;;;;;15.00;3.57;;;;;;;7.34;100.00;99389.31;5033081;28;20234;-72
2024/01/25 07:08:43;;;;;;;22.97;4.40;;;;;;;7.28;100.00;99395.28;5033488;28;20202;-72
2024/01/25 07:11:09;;;;;;;24.13;4.33;;;;;;;7.30;100.00;99406.50;5032994;28;20225;-72
2024/01/25 07:13:35;;;;;;;17.37;4.43;;;;;;;7.36;100.00;99397.88;5032846;28;20225;-72
2024/01/25 07:16:02;;;;;;;21.87;4.97;;;;;;;7.23;100.00;99403.69;5032720;28;20680;-72
2024/01/25 07:18:28;;;;;;;15.83;4.03;;;;;;;7.20;100.00;99411.13;5033502;28;20206;-72
2024/01/25 07:20:54;;;;;;;15.03;3.40;;;;;;;7.02;100.00;99405.97;5032937;28;20206;-72
2024/01/25 07:23:22;;;;;;;18.87;4.30;;;;;;;7.09;100.00;99409.63;5032877;28;20241;-72
2024/01/25 07:25:49;;;;;;;17.53;3.73;;;;;;;7.06;100.00;99407.31;5032361;28;20581;-72
2024/01/25 07:28:19;;;;;;;20.03;3.70;;;;;;;7.10;100.00;99402.53;5033124;28;20704;-72
2024/01/25 07:30:50;;;;;;;25.30;4.73;;;;;;;7.16;100.00;99399.22;5032824;28;20222;-72
2024/01/25 07:33:17;;;;;;;17.53;4.37;;;;;;;7.21;100.00;99403.03;5030439;28;20232;-72
2024/01/25 07:35:46;;;;;;;19.97;4.10;;;;;;;7.24;100.00;99400.03;5032060;28;20744;-72
2024/01/25 07:38:13;;;;;;;18.70;4.33;;;;;;;7.35;100.00;99410.31;5032699;28;20202;-72
2024/01/25 07:40:40;;;;;;;12.93;4.30;;;;;;;7.34;100.00;99408.63;5032941;28;20199;-72
2024/01/25 07:43:06;;;;;;;18.07;4.37;;;;;;;7.37;100.00;99412.78;5032629;28;20254;-72
2024/01/25 07:45:33;;;;;;;25.23;4.80;;;;;;;7.39;100.00;99416.09;5033048;28;20217;-72
2024/01/25 07:48:00;;;;;;;13.67;3.97;;;;;;;7.46;100.00;99414.44;5032729;28;20208;-73
2024/01/25 07:50:26;;;;;;;17.93;4.10;;;;;;;7.50;100.00;99421.88;5032770;28;20206;-73
2024/01/25 07:52:55;;;;;;;18.13;4.37;;;;;;;7.55;100.00;99408.16;5032277;28;20709;-73
2024/01/25 07:55:21;;;;;;;20.00;4.73;;;;;;;7.45;100.00;99405.66;5032442;28;20216;-74
2024/01/25 07:57:48;;;;;;;23.93;5.27;;;;;;;7.65;100.00;99409.59;5032438;28;20210;-73
2024/01/25 08:00:14;;;;;;;18.13;3.90;;;;;;;7.60;100.00;99403.19;5032762;28;20212;-73
2024/01/25 08:02:41;;;;;;;22.53;4.53;;;;;;;7.69;100.00;99404.81;5033542;28;20224;-74
2024/01/25 08:05:08;;;;;;;14.77;4.20;;;;;;;7.71;100.00;99394.88;5032973;28;20212;-73
2024/01/25 08:07:34;;;;;;;21.33;4.80;;;;;;;7.71;100.00;99392.22;5036988;28;20212;-73
2024/01/25 08:10:00;;;;;;;20.17;5.00;;;;;;;7.75;100.00;99396.19;5036483;28;20210;-73
2024/01/25 08:12:27;;;;;;;21.10;5.17;;;;;;;7.74;100.00;99399.84;5036471;28;20337;-73
2024/01/25 08:14:53;;;;;;;20.60;4.90;;;;;;;7.75;100.00;99401.50;5036711;28;20203;-73
2024/01/25 08:17:20;;;;;;;15.23;4.13;;;;;;;7.81;100.00;99400.81;5036855;28;20201;-74
2024/01/25 08:19:46;;;;;;;16.37;4.53;;;;;;;7.85;100.00;99402.13;5036611;28;20214;-75
2024/01/25 08:22:13;;;;;;;18.67;4.57;;;;;;;7.91;100.00;99407.56;5036335;28;20308;-74
2024/01/25 08:24:43;;;;;;;18.23;4.07;;;;;;;7.91;100.00;99412.03;5036309;28;20302;-74
2024/01/25 08:27:10;;;;;;;19.80;4.57;;;;;;;7.94;100.00;99417.84;5036541;28;20281;-74
2024/01/25 08:29:37;;;;;;;22.23;4.10;;;;;;;8.20;100.00;99410.50;5036154;28;20212;-73
2024/01/25 08:32:04;;;;;;;20.90;4.53;;;;;;;7.97;100.00;99414.03;5035761;28;20261;-73
2024/01/25 08:34:30;;;;;;;21.00;4.93;;;;;;;7.96;100.00;99407.91;5035926;28;20692;-73
2024/01/25 08:36:57;;;;;;;24.90;4.87;;;;;;;8.08;100.00;99413.66;5035792;28;20660;-73
2024/01/25 08:39:23;;;;;;;18.43;3.90;;;;;;;8.14;100.00;99420.94;5036122;28;20213;-74
2024/01/25 08:41:50;;;;;;;20.87;5.00;;;;;;;8.08;100.00;99418.94;5036263;28;20206;-74
2024/01/25 08:44:16;;;;;;;18.07;3.97;;;;;;;8.15;100.00;99430.53;5035775;28;20678;-74
2024/01/25 08:46:43;;;;;;;16.43;4.20;;;;;;;8.17;100.00;99428.53;5035998;28;20256;-74
2024/01/25 08:49:12;;;;;;;11.50;3.60;;;;;;;8.27;100.00;99448.56;5036159;28;20277;-74
2024/01/25 08:51:38;;;;;;;20.00;4.27;;;;;;;8.34;100.00;99456.66;5035775;28;20225;-73
2024/01/25 08:54:05;;;;;;;15.53;4.07;;;;;;;8.40;100.00;99450.66;5035518;28;20238;-74
2024/01/25 08:56:31;;;;;;;16.17;3.93;;;;;;;8.43;100.00;99451.16;5035839;28;20263;-73
2024/01/25 08:58:58;;;;;;;22.33;4.33;;;;;;;8.41;100.00;99445.19;5035838;28;20205;-74
2024/01/25 09:01:24;;;;;;;19.60;4.33;;;;;;;8.45;100.00;99450.97;5035958;28;20214;-75
2024/01/25 09:03:51;;;;;;;19.30;4.17;;;;;;;8.51;100.00;99451.13;5036336;28;20308;-75
2024/01/25 09:06:17;;;;;;;17.17;4.30;;;;;;;8.50;100.00;99452.13;5035760;28;20305;-74
2024/01/25 09:08:44;;;;;;;14.83;3.63;;;;;;;8.56;100.00;99450.63;5035639;28;20649;-74
2024/01/25 09:11:10;;;;;;;17.83;4.13;;;;;;;8.59;100.00;99456.38;5035235;28;20696;-73
2024/01/25 09:13:40;;;;;;;17.60;3.47;;;;;;;8.63;100.00;99454.22;5035545;28;20248;-74
2024/01/25 09:16:07;;;;;;;18.90;4.00;;;;;;;8.67;100.00;99461.66;5035769;28;20702;-73
2024/01/25 09:18:33;;;;;;;15.23;3.80;;;;;;;8.71;100.00;99462.13;5035025;28;20213;-74
2024/01/25 09:20:59;;;;;;;16.70;4.20;;;;;;;8.77;100.00;99470.22;5035284;28;20213;-74
2024/01/25 09:23:26;;;;;;;19.90;4.33;;;;;;;8.75;100.00;99477.53;5035539;28;20229;-73
2024/01/25 09:25:52;;;;;;;14.73;3.57;;;;;;;8.83;100.00;99484.63;5035202;28;20226;-73
2024/01/25 09:28:19;;;;;;;18.53;4.17;;;;;;;8.81;100.00;99487.44;5035075;28;20210;-73
2024/01/25 09:30:45;;;;;;;18.90;3.80;;;;;;;8.91;100.00;99482.75;5034790;28;20214;-73
2024/01/25 09:33:11;;;;;;;14.33;4.20;;;;;;;8.91;100.00;99488.06;5034967;28;20325;-74
2024/01/25 09:35:38;;;;;;;16.67;3.47;;;;;;;8.99;100.00;99487.19;5034866;28;20665;-74
2024/01/25 09:38:04;;;;;;;20.43;4.40;;;;;;;9.12;100.00;99488.28;5034922;28;20210;-75
2024/01/25 09:40:31;;;;;;;17.53;3.97;;;;;;;9.16;100.00;99499.34;5035061;28;20208;-73
2024/01/25 09:42:57;;;;;;;18.43;4.13;;;;;;;9.21;100.00;99494.34;5034955;28;20249;-73
2024/01/25 09:45:25;;;;;;;17.93;4.30;;;;;;;9.36;100.00;99495.25;5034572;28;20212;-73
2024/01/25 09:47:51;;;;;;;15.37;3.67;;;;;;;9.53;100.00;99502.09;5034826;28;20283;-74
2024/01/25 09:50:17;;;;;;;14.60;4.17;;;;;;;9.61;100.00;99486.09;5035144;28;20297;-74
2024/01/25 09:52:45;;;;;;;16.30;4.20;;;;;;;9.77;100.00;99496.63;5034596;28;20226;-73
2024/01/25 09:55:14;;;;;;;16.93;3.83;;;;;;;9.75;100.00;99502.09;5034915;28;20214;-74
2024/01/25 09:57:44;;;;;;;20.07;4.63;;;;;;;9.85;100.00;99500.00;5034802;28;20209;-74
2024/01/25 10:00:11;;;;;;;17.33;3.93;;;;;;;9.94;100.00;99496.28;5033713;28;20206;-74
2024/01/25 10:02:39;;;;;;;15.53;4.27;;;;;;;9.87;100.00;99510.47;5033082;28;20715;-74
2024/01/25 10:05:06;;;;;;;17.30;4.40;;;;;;;9.89;100.00;99503.13;5034746;28;20213;-74
2024/01/25 10:07:46;;;;;;;19.83;4.60;;;;;;;9.98;100.00;99510.84;5034243;28;20214;-73
2024/01/25 10:10:14;;;;;;;16.90;4.07;;;;;;;9.67;100.00;99509.28;5034533;28;20216;-75
2024/01/25 10:12:44;;;;;;;14.43;3.63;;;;;;;9.61;100.00;99502.88;5034365;28;20240;-74
2024/01/25 10:15:11;;;;;;;17.40;3.83;;;;;;;9.66;100.00;99508.47;5034221;28;20206;-75
2024/01/25 10:17:37;;;;;;;17.57;4.27;;;;;;;9.66;100.00;99503.16;5034310;28;20210;-74
2024/01/25 10:20:10;;;;;;;17.90;4.20;;;;;;;9.67;100.00;99496.84;5034425;28;20212;-74
2024/01/25 10:22:38;;;;;;;12.57;3.93;;;;;;;9.66;100.00;99491.72;5033886;28;20264;-73
2024/01/25 10:25:05;;;;;;;15.20;4.00;;;;;;;9.85;100.00;99483.25;5033709;28;20236;-74
2024/01/25 10:27:31;;;;;;;19.17;3.73;;;;;;;9.61;100.00;99486.09;5034144;28;20252;-74
2024/01/25 10:29:58;;;;;;;18.23;4.10;;;;;;;9.59;100.00;99480.16;5032990;28;20657;-74
2024/01/25 10:32:24;;;;;;;13.23;3.57;;;;;;;9.83;100.00;99487.91;5033493;28;20234;-73
2024/01/25 10:34:52;;;;;;;13.17;3.73;;;;;;;9.80;100.00;99486.44;5033948;28;20206;-74
2024/01/25 10:37:20;;;;;;;14.93;4.40;;;;;;;9.92;100.00;99478.88;5034230;28;20205;-74
2024/01/25 10:39:46;;;;;;;17.37;4.03;;;;;;;10.07;100.00;99479.75;5033746;28;20285;-73
2024/01/25 10:42:13;;;;;;;12.73;3.63;;;;;;;9.99;100.00;99482.44;5032023;28;20562;-73
2024/01/25 10:44:39;;;;;;;17.80;3.97;;;;;;;10.08;100.00;99474.25;5034138;28;20207;-73
2024/01/25 10:47:07;;;;;;;16.10;3.53;;;;;;;10.10;100.00;99476.75;5033551;28;20216;-73
2024/01/25 10:49:34;;;;;;;19.33;3.93;;;;;;;9.94;100.00;99463.56;5033350;28;20263;-73
2024/01/25 10:52:01;;;;;;;15.17;3.83;;;;;;;10.05;100.00;99463.97;5033455;28;20222;-73
2024/01/25 10:54:27;;;;;;;16.00;3.50;;;;;;;10.04;100.00;99461.47;5033395;28;20668;-73
2024/01/25 10:56:54;;;;;;;19.53;3.97;;;;;;;10.06;100.00;99455.03;5034062;28;20207;-73
2024/01/25 10:59:21;;;;;;;16.17;3.67;;;;;;;10.20;100.00;99450.72;5033171;28;20206;-73
2024/01/25 11:01:48;;;;;;;11.40;3.00;;;;;;;10.16;100.00;99454.75;5033465;28;20205;-73
2024/01/25 11:04:18;;;;;;;13.50;3.37;;;;;;;10.26;100.00;99450.81;5033457;28;20571;-73
2024/01/25 11:06:46;;;;;;;19.17;3.83;;;;;;;10.12;100.00;99458.75;5033231;28;20206;-73
2024/01/25 11:09:19;;;;;;;14.13;3.97;;;;;;;10.11;100.00;99443.84;5032939;28;20220;-73
2024/01/25 11:11:48;;;;;;;17.33;3.33;;;;;;;9.95;100.00;99441.28;5033217;28;20226;-73
2024/01/25 11:14:16;;;;;;;13.07;3.50;;;;;;;10.15;100.00;99431.84;5032890;28;20209;-73
2024/01/25 11:16:46;;;;;;;17.83;3.60;;;;;;;10.20;100.00;99434.75;5033345;28;20264;-73
2024/01/25 11:19:20;;;;;;;16.37;4.47;;;;;;;10.11;100.00;99422.56;5033029;28;20755;-73
2024/01/25 11:21:49;;;;;;;18.93;3.30;;;;;;;10.21;100.00;99417.81;5032918;28;20206;-73